ANA923 RJTT-ZGGG
Flight info
| Callsign | ANA923 |
|---|---|
| Flight time | N/A |
| Altitude | 38000 |
| Route | NINOX Y28 KCC V28 OLIVE Y28 ISAKY Y60 FUE A593 LAMEN/K0845F380 A593 AKARA/K0843S1160 A593 PUD A599 PLT W19 OLPAB OLPAB8 |
| Aircraft | A20N/M-SDE2E3FGHIRWXY/LB1 |
Departure
| Time | 2026-05-06 22:25 |
|---|---|
| Airport | Tokyo Haneda International Airport (RJTT) |
Arrival
| Time | N/A |
|---|---|
| Airport | Guangzhou Baiyun International Airport (ZGGG) |
| Time | Latitude | Longitude | Altitude | Speed | Heading |
|---|---|---|---|---|---|
| 2026-05-06 22:08 | 35.54840 | 139.79327 | 28 ft | 0 kts | 330° |
| 2026-05-06 22:12 | 35.54821 | 139.79340 | 27 ft | 4 kts | 330° |
| 2026-05-06 22:12 | 35.54802 | 139.79354 | 27 ft | 4 kts | 331° |
| 2026-05-06 22:13 | 35.54778 | 139.79363 | 28 ft | 4 kts | 12° |
| 2026-05-06 22:13 | 35.54756 | 139.79348 | 28 ft | 4 kts | 56° |
| 2026-05-06 22:13 | 35.54743 | 139.79321 | 28 ft | 4 kts | 60° |
| 2026-05-06 22:13 | 35.54740 | 139.79316 | 28 ft | 1 kts | 60° |
| 2026-05-06 22:19 | 35.54741 | 139.79317 | 28 ft | 1 kts | 60° |
| 2026-05-06 22:19 | 35.54753 | 139.79343 | 28 ft | 6 kts | 60° |
| 2026-05-06 22:20 | 35.54782 | 139.79404 | 28 ft | 10 kts | 59° |
| 2026-05-06 22:20 | 35.54823 | 139.79488 | 28 ft | 12 kts | 59° |
| 2026-05-06 22:20 | 35.54812 | 139.79534 | 27 ft | 5 kts | 155° |
| 2026-05-06 22:20 | 35.54782 | 139.79573 | 25 ft | 6 kts | 81° |
| 2026-05-06 22:21 | 35.54800 | 139.79637 | 27 ft | 8 kts | 82° |
| 2026-05-06 22:21 | 35.54768 | 139.79693 | 28 ft | 10 kts | 149° |
| 2026-05-06 22:21 | 35.54696 | 139.79746 | 26 ft | 13 kts | 149° |
| 2026-05-06 22:21 | 35.54607 | 139.79806 | 27 ft | 16 kts | 151° |
| 2026-05-06 22:22 | 35.54502 | 139.79880 | 22 ft | 19 kts | 149° |
| 2026-05-06 22:22 | 35.54408 | 139.79949 | 23 ft | 15 kts | 149° |
| 2026-05-06 22:22 | 35.54310 | 139.80020 | 21 ft | 18 kts | 149° |
| 2026-05-06 22:22 | 35.54204 | 139.80093 | 22 ft | 17 kts | 146° |
| 2026-05-06 22:23 | 35.54208 | 139.80195 | 26 ft | 12 kts | 60° |
| 2026-05-06 22:23 | 35.54251 | 139.80274 | 27 ft | 10 kts | 39° |
| 2026-05-06 22:23 | 35.54316 | 139.80268 | 27 ft | 11 kts | 333° |
| 2026-05-06 22:23 | 35.54355 | 139.80240 | 27 ft | 0 kts | 329° |
| 2026-05-06 22:24 | 35.54356 | 139.80239 | 27 ft | 2 kts | 329° |
| 2026-05-06 22:24 | 35.54573 | 139.80081 | 28 ft | 72 kts | 330° |
| 2026-05-06 22:24 | 35.55190 | 139.79648 | 28 ft | 129 kts | 331° |
| 2026-05-06 22:24 | 35.56095 | 139.78998 | 106 ft | 164 kts | 329° |
| 2026-05-06 22:25 | 35.57083 | 139.78263 | 548 ft | 174 kts | 328° |
| 2026-05-06 22:25 | 35.58194 | 139.77502 | 915 ft | 184 kts | 340° |
| 2026-05-06 22:25 | 35.59481 | 139.77442 | 1460 ft | 196 kts | 17° |
| 2026-05-06 22:25 | 35.60637 | 139.78391 | 1778 ft | 214 kts | 53° |
| 2026-05-06 22:26 | 35.61205 | 139.80129 | 2089 ft | 231 kts | 89° |
| 2026-05-06 22:26 | 35.60903 | 139.82104 | 2422 ft | 246 kts | 121° |
| 2026-05-06 22:26 | 35.59757 | 139.83697 | 3075 ft | 254 kts | 146° |
| 2026-05-06 22:26 | 35.58354 | 139.85042 | 3989 ft | 259 kts | 142° |
| 2026-05-06 22:27 | 35.57108 | 139.86708 | 4851 ft | 270 kts | 130° |
| 2026-05-06 22:27 | 35.56124 | 139.88705 | 5788 ft | 275 kts | 120° |
| 2026-05-06 22:27 | 35.55343 | 139.90865 | 6733 ft | 279 kts | 115° |
| 2026-05-06 22:27 | 35.54438 | 139.92963 | 7573 ft | 278 kts | 134° |
| 2026-05-06 22:28 | 35.52924 | 139.94394 | 8397 ft | 275 kts | 160° |
| 2026-05-06 22:28 | 35.51091 | 139.94839 | 9236 ft | 274 kts | 185° |
| 2026-05-06 22:28 | 35.49180 | 139.94457 | 10083 ft | 277 kts | 193° |
| 2026-05-06 22:28 | 35.47323 | 139.93739 | 10542 ft | 294 kts | 210° |
| 2026-05-06 22:29 | 35.45729 | 139.92039 | 10791 ft | 318 kts | 233° |
| 2026-05-06 22:29 | 35.44799 | 139.89525 | 11280 ft | 332 kts | 257° |
| 2026-05-06 22:29 | 35.44483 | 139.86703 | 12066 ft | 336 kts | 261° |
| 2026-05-06 22:29 | 35.44170 | 139.83848 | 12871 ft | 339 kts | 261° |
| 2026-05-06 22:30 | 35.43821 | 139.80974 | 13641 ft | 343 kts | 260° |
| 2026-05-06 22:30 | 35.43441 | 139.78067 | 14364 ft | 346 kts | 259° |
| 2026-05-06 22:30 | 35.43077 | 139.75146 | 15129 ft | 347 kts | 263° |
| 2026-05-06 22:30 | 35.43062 | 139.72174 | 15862 ft | 351 kts | 273° |
| 2026-05-06 22:31 | 35.43497 | 139.69215 | 16572 ft | 356 kts | 283° |
| 2026-05-06 22:31 | 35.44257 | 139.66313 | 17261 ft | 359 kts | 285° |
| 2026-05-06 22:31 | 35.45029 | 139.63395 | 17932 ft | 362 kts | 285° |
| 2026-05-06 22:31 | 35.45802 | 139.60443 | 18554 ft | 364 kts | 284° |
| 2026-05-06 22:32 | 35.46577 | 139.57468 | 19128 ft | 367 kts | 284° |
| 2026-05-06 22:32 | 35.47354 | 139.54477 | 19683 ft | 370 kts | 284° |
| 2026-05-06 22:32 | 35.48081 | 139.51448 | 20246 ft | 370 kts | 279° |
| 2026-05-06 22:32 | 35.48524 | 139.48334 | 20774 ft | 371 kts | 273° |
| 2026-05-06 22:33 | 35.48685 | 139.45175 | 21326 ft | 372 kts | 269° |
| 2026-05-06 22:33 | 35.48805 | 139.41993 | 21886 ft | 375 kts | 270° |
| 2026-05-06 22:33 | 35.48936 | 139.38791 | 22434 ft | 377 kts | 270° |
| 2026-05-06 22:33 | 35.49069 | 139.35563 | 22981 ft | 380 kts | 269° |
| 2026-05-06 22:34 | 35.49202 | 139.32311 | 23505 ft | 383 kts | 269° |
| 2026-05-06 22:34 | 35.49333 | 139.29080 | 23971 ft | 385 kts | 269° |
| 2026-05-06 22:34 | 35.49464 | 139.25803 | 24531 ft | 385 kts | 269° |
| 2026-05-06 22:34 | 35.49593 | 139.22519 | 25088 ft | 385 kts | 269° |
| 2026-05-06 22:35 | 35.49723 | 139.19181 | 25594 ft | 387 kts | 270° |
| 2026-05-06 22:35 | 35.49790 | 139.15922 | 26112 ft | 385 kts | 266° |
| 2026-05-06 22:35 | 35.49641 | 139.12645 | 26694 ft | 383 kts | 264° |
| 2026-05-06 22:35 | 35.49477 | 139.09370 | 27141 ft | 385 kts | 264° |
| 2026-05-06 22:36 | 35.49319 | 139.06091 | 27587 ft | 386 kts | 265° |
| 2026-05-06 22:36 | 35.49161 | 139.02814 | 28101 ft | 384 kts | 265° |
| 2026-05-06 22:36 | 35.49002 | 138.99526 | 28489 ft | 387 kts | 265° |
| 2026-05-06 22:36 | 35.48840 | 138.96228 | 28906 ft | 387 kts | 265° |
| 2026-05-06 22:37 | 35.48677 | 138.92927 | 29248 ft | 389 kts | 265° |
| 2026-05-06 22:37 | 35.48512 | 138.89615 | 29768 ft | 387 kts | 265° |
| 2026-05-06 22:37 | 35.48347 | 138.86328 | 30210 ft | 386 kts | 265° |
| 2026-05-06 22:37 | 35.48180 | 138.83028 | 30498 ft | 389 kts | 265° |
| 2026-05-06 22:38 | 35.48012 | 138.79706 | 30792 ft | 391 kts | 265° |
| 2026-05-06 22:38 | 35.47844 | 138.76386 | 31137 ft | 390 kts | 264° |
| 2026-05-06 22:38 | 35.47674 | 138.73063 | 31522 ft | 389 kts | 264° |
| 2026-05-06 22:38 | 35.47505 | 138.69748 | 31902 ft | 388 kts | 264° |
| 2026-05-06 22:39 | 35.47337 | 138.66496 | 32301 ft | 387 kts | 264° |
| 2026-05-06 22:39 | 35.47166 | 138.63214 | 32769 ft | 383 kts | 264° |
| 2026-05-06 22:39 | 35.46995 | 138.59959 | 33183 ft | 381 kts | 264° |
| 2026-05-06 22:39 | 35.46824 | 138.56720 | 33555 ft | 379 kts | 264° |
| 2026-05-06 22:40 | 35.46653 | 138.53489 | 33896 ft | 378 kts | 264° |
| 2026-05-06 22:40 | 35.46481 | 138.50281 | 34280 ft | 375 kts | 264° |
| 2026-05-06 22:40 | 35.46311 | 138.47098 | 34592 ft | 374 kts | 264° |
| 2026-05-06 22:40 | 35.46141 | 138.43928 | 34898 ft | 372 kts | 264° |
| 2026-05-06 22:41 | 35.45796 | 138.37614 | 35520 ft | 367 kts | 263° |
| 2026-05-06 22:41 | 35.45621 | 138.34492 | 35803 ft | 367 kts | 264° |
| 2026-05-06 22:41 | 35.45451 | 138.31367 | 36096 ft | 367 kts | 264° |
| 2026-05-06 22:42 | 35.45282 | 138.28249 | 36323 ft | 366 kts | 264° |
| 2026-05-06 22:42 | 35.45113 | 138.25151 | 36617 ft | 362 kts | 264° |
| 2026-05-06 22:42 | 35.44945 | 138.22109 | 36826 ft | 362 kts | 264° |
| 2026-05-06 22:42 | 35.44771 | 138.18984 | 36997 ft | 363 kts | 264° |
| 2026-05-06 22:43 | 35.44600 | 138.15942 | 37259 ft | 361 kts | 263° |
| 2026-05-06 22:43 | 35.44426 | 138.12884 | 37605 ft | 358 kts | 263° |
| 2026-05-06 22:43 | 35.44311 | 138.10831 | 37848 ft | 357 kts | 264° |
| 2026-05-06 22:43 | 35.44082 | 138.06803 | 38088 ft | 358 kts | 263° |
| 2026-05-06 22:44 | 35.43908 | 138.03759 | 38096 ft | 359 kts | 264° |
| 2026-05-06 22:44 | 35.43560 | 137.97686 | 38094 ft | 355 kts | 263° |
| 2026-05-06 22:45 | 35.43267 | 137.92644 | 38095 ft | 357 kts | 263° |
| 2026-05-06 22:45 | 35.42914 | 137.86601 | 38087 ft | 354 kts | 263° |
| 2026-05-06 22:46 | 35.42558 | 137.80571 | 38086 ft | 355 kts | 263° |
| 2026-05-06 22:46 | 35.42170 | 137.74550 | 38087 ft | 353 kts | 262° |
| 2026-05-06 22:47 | 35.41710 | 137.68553 | 38080 ft | 352 kts | 262° |
| 2026-05-06 22:47 | 35.41251 | 137.62570 | 38075 ft | 352 kts | 262° |
| 2026-05-06 22:48 | 35.40702 | 137.56650 | 38070 ft | 350 kts | 258° |
| 2026-05-06 22:48 | 35.39592 | 137.50846 | 38080 ft | 350 kts | 254° |
| 2026-05-06 22:49 | 35.38333 | 137.45082 | 38073 ft | 350 kts | 255° |
| 2026-05-06 22:49 | 35.37083 | 137.39334 | 38072 ft | 348 kts | 255° |
| 2026-05-06 22:50 | 35.35829 | 137.33590 | 38065 ft | 350 kts | 254° |
| 2026-05-06 22:50 | 35.34570 | 137.27848 | 38073 ft | 348 kts | 254° |
| 2026-05-06 22:51 | 35.33315 | 137.22140 | 38048 ft | 346 kts | 255° |
| 2026-05-06 22:51 | 35.32063 | 137.16456 | 38079 ft | 346 kts | 254° |
| 2026-05-06 22:52 | 35.30798 | 137.10733 | 38069 ft | 349 kts | 254° |
| 2026-05-06 22:52 | 35.29542 | 137.05048 | 38066 ft | 346 kts | 254° |
| 2026-05-06 22:53 | 35.28269 | 136.99317 | 38057 ft | 348 kts | 254° |
| 2026-05-06 22:53 | 35.27633 | 136.96460 | 37661 ft | 350 kts | 254° |
| 2026-05-06 22:53 | 35.26983 | 136.93546 | 37228 ft | 365 kts | 254° |
| 2026-05-06 22:53 | 35.26288 | 136.90446 | 35869 ft | 403 kts | 255° |
| 2026-05-06 22:54 | 35.25508 | 136.86985 | 33507 ft | 442 kts | 256° |
| 2026-05-06 22:54 | 35.24656 | 136.83183 | 31426 ft | 472 kts | 255° |
| 2026-05-06 22:54 | 35.23791 | 136.79318 | 30469 ft | 469 kts | 255° |
| 2026-05-06 22:54 | 35.22931 | 136.75471 | 29179 ft | 470 kts | 255° |
| 2026-05-06 22:55 | 35.22062 | 136.71586 | 27793 ft | 474 kts | 255° |
| 2026-05-06 22:55 | 35.21186 | 136.67667 | 26286 ft | 480 kts | 255° |
| 2026-05-06 22:55 | 35.20301 | 136.63708 | 24785 ft | 485 kts | 255° |
| 2026-05-06 22:55 | 35.19409 | 136.59720 | 23562 ft | 486 kts | 254° |
| 2026-05-06 22:56 | 35.18523 | 136.55759 | 22604 ft | 480 kts | 254° |
| 2026-05-06 22:56 | 35.17648 | 136.51847 | 21774 ft | 472 kts | 254° |
| 2026-05-06 22:56 | 35.16788 | 136.48003 | 20930 ft | 466 kts | 254° |
| 2026-05-06 22:56 | 35.15938 | 136.44206 | 20115 ft | 461 kts | 254° |
| 2026-05-06 22:57 | 35.15096 | 136.40449 | 19287 ft | 456 kts | 254° |
| 2026-05-06 22:57 | 35.14272 | 136.36776 | 18519 ft | 451 kts | 254° |
| 2026-05-06 22:57 | 35.13448 | 136.33101 | 17699 ft | 446 kts | 254° |
| 2026-05-06 22:57 | 35.12636 | 136.29473 | 16918 ft | 439 kts | 254° |
| 2026-05-06 22:58 | 35.11836 | 136.25903 | 16151 ft | 433 kts | 254° |
| 2026-05-06 22:58 | 35.11049 | 136.22388 | 15384 ft | 427 kts | 254° |
| 2026-05-06 22:58 | 35.10271 | 136.18912 | 14638 ft | 421 kts | 254° |
| 2026-05-06 22:58 | 35.09504 | 136.15482 | 13912 ft | 416 kts | 254° |
| 2026-05-06 22:59 | 35.08747 | 136.12097 | 13086 ft | 411 kts | 254° |
| 2026-05-06 22:59 | 35.07998 | 136.08747 | 12253 ft | 406 kts | 254° |
| 2026-05-06 22:59 | 35.07257 | 136.05436 | 11443 ft | 402 kts | 254° |
| 2026-05-06 22:59 | 35.06522 | 136.02153 | 10660 ft | 398 kts | 254° |
| 2026-05-06 23:00 | 35.05796 | 135.98911 | 9879 ft | 394 kts | 254° |
| 2026-05-06 23:00 | 35.05077 | 135.95704 | 9115 ft | 389 kts | 254° |
| 2026-05-06 23:00 | 35.04369 | 135.92543 | 8365 ft | 383 kts | 254° |
| 2026-05-06 23:00 | 35.03672 | 135.89430 | 7659 ft | 378 kts | 253° |
| 2026-05-06 23:01 | 35.02985 | 135.86356 | 6956 ft | 373 kts | 253° |
| 2026-05-06 23:01 | 35.02307 | 135.83323 | 6256 ft | 368 kts | 253° |
| 2026-05-06 23:01 | 35.01637 | 135.80331 | 5468 ft | 366 kts | 254° |
| 2026-05-06 23:01 | 35.00965 | 135.77347 | 4686 ft | 364 kts | 254° |
| 2026-05-06 23:02 | 35.00294 | 135.74374 | 3876 ft | 363 kts | 254° |
| 2026-05-06 23:02 | 34.99625 | 135.71414 | 3094 ft | 362 kts | 254° |
| 2026-05-06 23:02 | 34.98962 | 135.68483 | 2279 ft | 362 kts | 254° |
| 2026-05-06 23:02 | 34.98888 | 135.68159 | 2190 ft | 362 kts | 254° |
| 2026-05-06 23:03 | 34.98302 | 135.65568 | 1523 ft | 361 kts | 254° |
| 2026-05-06 23:03 | 34.98023 | 135.64178 | 1544 ft | 30 kts | 295° |
| 2026-05-06 23:03 | 34.98026 | 135.64179 | 1449 ft | 0 kts | 346° |
| 2026-05-06 23:03 | 34.98030 | 135.64177 | 1428 ft | 2 kts | 2° |
| 2026-05-06 23:04 | 34.98030 | 135.64176 | 1428 ft | 0 kts | 2° |
| 2026-05-06 23:04 | 34.98031 | 135.64176 | 1422 ft | 0 kts | 2° |